Time;durP1;ratioP1;P1;durP2;ratioP2;P2;SDS_P1;SDS_P2;PMS_P1;PMS_P2;Temp;Humidity;BMP_temperature;BMP_pressure;BME280_temperature;BME280_humidity;BME280_pressure;Samples;Min_cycle;Max_cycle;Signal;HPM_P1;HPM_P2
2023/06/25 03:00:19;;;;;;;64.20;60.80;;;14.70;99.90;;;;;;5817586;23;20180;-74
2023/06/25 03:02:45;;;;;;;67.73;64.03;;;14.70;99.90;;;;;;4858351;29;20201;-74
2023/06/25 03:05:11;;;;;;;66.07;62.57;;;14.60;99.90;;;;;;4862247;29;20216;-76
2023/06/25 03:07:37;;;;;;;70.70;66.87;;;14.60;99.90;;;;;;4871932;29;20649;-77
2023/06/25 03:10:04;;;;;;;48.67;46.10;;;14.50;99.90;;;;;;4859020;29;20197;-76
2023/06/25 03:12:30;;;;;;;55.87;52.80;;;14.60;99.90;;;;;;4869409;29;20317;-77
2023/06/25 03:14:56;;;;;;;79.27;74.83;;;14.60;99.90;;;;;;4894320;23;20230;-82
2023/06/25 03:17:22;;;;;;;86.77;82.27;;;14.50;99.90;;;;;;4867721;29;20208;-83
2023/06/25 03:19:47;;;;;;;88.67;83.93;;;14.60;99.90;;;;;;4859781;29;20532;-83
2023/06/25 03:22:13;;;;;;;94.40;89.50;;;14.50;99.90;;;;;;4865059;29;20188;-84
2023/06/25 03:24:39;;;;;;;57.63;54.40;;;14.40;99.90;;;;;;4869836;29;20295;-83
2023/06/25 03:27:05;;;;;;;45.63;43.00;;;14.30;99.90;;;;;;4859075;29;20276;-84
2023/06/25 03:29:31;;;;;;;32.97;31.03;;;14.30;99.90;;;;;;4862219;29;20207;-83
2023/06/25 03:31:57;;;;;;;26.63;24.93;;;14.30;99.90;;;;;;4858809;29;20184;-83
2023/06/25 03:34:22;;;;;;;28.17;26.50;;;14.30;99.90;;;;;;4880788;29;20199;-81
2023/06/25 03:36:48;;;;;;;27.43;25.57;;;14.30;99.90;;;;;;4863011;29;20217;-83
2023/06/25 03:39:14;;;;;;;26.90;25.17;;;14.30;99.90;;;;;;4857399;29;20197;-83
2023/06/25 03:41:40;;;;;;;21.83;20.43;;;14.20;99.90;;;;;;4869911;29;20237;-85
2023/06/25 03:44:05;;;;;;;17.13;16.03;;;14.30;99.90;;;;;;4901063;29;20210;-85
2023/06/25 03:46:31;;;;;;;19.57;17.97;;;14.30;99.90;;;;;;4892372;29;20244;-83
2023/06/25 03:48:57;;;;;;;19.60;18.30;;;14.30;99.90;;;;;;4863404;29;20310;-82
2023/06/25 03:51:23;;;;;;;18.40;17.17;;;14.40;99.90;;;;;;4855910;29;20204;-81
2023/06/25 03:53:48;;;;;;;25.90;24.30;;;14.40;99.90;;;;;;4863106;29;20192;-83
2023/06/25 03:56:14;;;;;;;47.03;44.43;;;14.50;99.90;;;;;;4868316;29;20213;-82
2023/06/25 03:58:40;;;;;;;55.93;52.60;;;14.50;99.90;;;;;;4855994;29;20250;-68
2023/06/25 04:01:06;;;;;;;87.87;82.90;;;14.60;99.90;;;;;;4877009;29;20239;-68
2023/06/25 04:03:31;;;;;;;124.43;117.20;;;14.60;99.90;;;;;;4876943;29;20838;-68
2023/06/25 04:05:57;;;;;;;133.30;126.03;;;14.60;99.90;;;;;;4872832;29;20223;-68
2023/06/25 04:08:23;;;;;;;189.07;179.07;;;14.80;99.90;;;;;;4876654;29;20181;-68
2023/06/25 04:10:48;;;;;;;200.07;189.30;;;14.80;99.90;;;;;;4876625;29;20662;-68
2023/06/25 04:13:14;;;;;;;109.27;103.57;;;14.90;99.90;;;;;;4875896;29;20284;-68
2023/06/25 04:15:40;;;;;;;55.13;52.17;;;14.90;99.90;;;;;;4876386;29;20228;-68
2023/06/25 04:18:06;;;;;;;25.13;23.57;;;15.00;99.90;;;;;;4872106;29;20608;-69
2023/06/25 04:20:31;;;;;;;27.00;24.90;;;15.00;99.90;;;;;;4876586;29;20231;-68
2023/06/25 04:22:57;;;;;;;19.10;17.83;;;15.00;99.90;;;;;;4876380;29;20200;-68
2023/06/25 04:25:23;;;;;;;15.80;14.80;;;15.10;99.90;;;;;;4860157;29;20287;-68
2023/06/25 04:27:49;;;;;;;19.70;18.47;;;15.20;99.90;;;;;;4875842;29;20197;-67
2023/06/25 04:30:15;;;;;;;34.93;32.87;;;15.20;99.90;;;;;;4859787;29;20261;-68
2023/06/25 04:32:41;;;;;;;36.87;34.80;;;15.20;99.90;;;;;;4853151;29;20732;-68
2023/06/25 04:35:07;;;;;;;30.03;28.30;;;15.30;99.90;;;;;;4870478;29;20212;-69
2023/06/25 04:37:33;;;;;;;48.47;45.67;;;15.40;99.90;;;;;;4875942;29;20192;-68
2023/06/25 04:40:00;;;;;;;71.63;67.60;;;15.40;99.90;;;;;;4876897;29;20292;-69
2023/06/25 04:42:26;;;;;;;101.60;96.27;;;15.40;99.90;;;;;;4875905;29;20573;-68
2023/06/25 04:44:52;;;;;;;93.70;88.40;;;15.50;99.90;;;;;;4877592;29;20192;-69
2023/06/25 04:47:18;;;;;;;82.80;78.27;;;15.60;99.90;;;;;;4882679;29;20195;-70
2023/06/25 04:49:43;;;;;;;50.03;47.30;;;15.70;99.90;;;;;;4865972;29;20188;-68
2023/06/25 04:52:17;;;;;;;38.47;36.27;;;15.90;99.90;;;;;;4882360;29;20240;-68
2023/06/25 04:54:42;;;;;;;22.67;21.20;;;16.10;99.90;;;;;;4882698;29;20200;-69
2023/06/25 04:57:09;;;;;;;34.40;32.40;;;16.30;99.90;;;;;;4882353;29;20802;-69
2023/06/25 04:59:35;;;;;;;37.20;35.00;;;16.40;99.90;;;;;;4879534;29;20283;-69
2023/06/25 05:02:01;;;;;;;26.03;24.20;;;16.50;99.90;;;;;;4882762;29;20310;-69
2023/06/25 05:04:27;;;;;;;30.10;28.23;;;16.70;99.90;;;;;;4882699;29;20227;-69
2023/06/25 05:06:52;;;;;;;16.58;15.57;;;17.20;99.90;;;;;;4882464;29;20219;-69
2023/06/25 05:09:18;;;;;;;14.32;13.05;;;17.70;99.90;;;;;;4882866;29;20720;-69
2023/06/25 05:11:44;;;;;;;26.00;24.35;;;18.20;99.90;;;;;;4882841;29;20497;-68
2023/06/25 05:14:10;;;;;;;15.63;14.63;;;18.90;99.90;;;;;;4877121;29;20291;-69
2023/06/25 05:16:35;;;;;;;29.85;28.10;;;19.60;99.90;;;;;;4883073;29;20250;-69
2023/06/25 05:19:01;;;;;;;61.17;58.00;;;20.30;99.90;;;;;;4881987;29;20196;-69
2023/06/25 05:21:27;;;;;;;20.88;19.63;;;20.90;99.90;;;;;;4882852;29;20220;-69
2023/06/25 05:24:01;;;;;;;12.90;11.98;;;21.30;99.90;;;;;;4868382;29;20196;-69
2023/06/25 05:26:28;;;;;;;17.52;16.02;;;21.70;99.90;;;;;;4892018;29;20196;-69
2023/06/25 05:28:54;;;;;;;12.57;11.65;;;22.10;99.90;;;;;;4885847;29;20196;-70
2023/06/25 05:31:20;;;;;;;12.77;11.93;;;22.40;99.90;;;;;;4882949;29;20680;-70
2023/06/25 05:33:46;;;;;;;9.95;8.98;;;22.60;99.90;;;;;;4882587;29;20220;-70
2023/06/25 05:36:16;;;;;;;11.20;10.30;;;23.10;99.90;;;;;;4882761;29;20243;-70
2023/06/25 05:38:41;;;;;;;26.60;25.02;;;23.60;99.90;;;;;;4882177;29;20200;-70
2023/06/25 05:41:08;;;;;;;16.48;15.48;;;23.90;99.90;;;;;;4875686;29;20209;-69
2023/06/25 05:43:33;;;;;;;11.02;10.13;;;24.00;99.90;;;;;;4872395;29;20184;-69
2023/06/25 05:45:59;;;;;;;8.98;8.38;;;24.30;99.90;;;;;;4880485;29;20759;-70
2023/06/25 05:48:26;;;;;;;8.45;7.85;;;24.50;99.90;;;;;;4881853;29;20349;-69
2023/06/25 05:50:52;;;;;;;8.75;8.13;;;24.60;99.90;;;;;;4882040;29;20223;-70
2023/06/25 05:53:18;;;;;;;7.78;7.07;;;24.70;99.90;;;;;;4881068;29;20241;-70
2023/06/25 05:55:44;;;;;;;10.27;9.60;;;25.00;99.90;;;;;;4873248;29;20208;-67
2023/06/25 05:58:10;;;;;;;24.80;23.40;;;25.40;99.20;;;;;;4861242;29;20518;-67
2023/06/25 06:00:35;;;;;;;17.08;16.10;;;25.90;98.20;;;;;;4878680;29;20701;-68
2023/06/25 06:03:02;;;;;;;19.20;17.98;;;26.20;96.60;;;;;;4879398;29;20204;-68
2023/06/25 06:05:27;;;;;;;34.13;32.33;;;26.30;95.60;;;;;;4879132;29;20204;-68
2023/06/25 06:07:53;;;;;;;46.15;43.42;;;26.80;94.70;;;;;;4871425;29;20434;-69
2023/06/25 06:10:19;;;;;;;66.03;62.60;;;27.10;93.20;;;;;;4879552;29;20236;-69
2023/06/25 06:12:45;;;;;;;52.88;49.95;;;27.30;92.40;;;;;;4879343;29;20193;-69
2023/06/25 06:15:11;;;;;;;23.58;22.27;;;27.40;91.60;;;;;;4879148;29;20238;-69
2023/06/25 06:17:37;;;;;;;8.15;7.65;;;27.60;91.10;;;;;;4879172;29;20200;-69
2023/06/25 06:20:03;;;;;;;7.53;6.82;;;28.00;90.10;;;;;;4878793;29;20192;-69
2023/06/25 06:22:29;;;;;;;10.73;9.98;;;28.10;88.60;;;;;;4876659;29;20188;-69
2023/06/25 06:24:55;;;;;;;9.00;8.27;;;28.00;87.80;;;;;;4862407;29;20188;-70
2023/06/25 06:27:21;;;;;;;13.13;12.23;;;27.80;87.70;;;;;;4878561;29;20590;-69
2023/06/25 06:29:47;;;;;;;33.85;31.83;;;28.10;86.60;;;;;;4878873;29;20280;-69
2023/06/25 06:32:13;;;;;;;36.33;34.40;;;28.40;84.50;;;;;;4878994;29;20196;-70
2023/06/25 06:34:39;;;;;;;33.25;31.45;;;28.60;83.00;;;;;;4875155;29;20270;-70
2023/06/25 06:37:05;;;;;;;32.00;30.15;;;29.20;80.50;;;;;;4859835;29;20775;-69
2023/06/25 06:39:31;;;;;;;20.30;19.20;;;29.50;79.60;;;;;;4875706;29;20192;-70
2023/06/25 06:41:57;;;;;;;11.13;10.35;;;29.70;75.70;;;;;;4878251;29;20230;-70
2023/06/25 06:44:22;;;;;;;10.98;9.93;;;29.50;74.40;;;;;;4870345;29;20188;-69
2023/06/25 06:46:48;;;;;;;11.50;10.52;;;29.40;71.50;;;;;;4878887;29;20212;-70
2023/06/25 06:49:16;;;;;;;13.32;12.43;;;29.40;71.80;;;;;;4871723;29;20220;-70
2023/06/25 06:51:43;;;;;;;13.93;13.02;;;29.80;70.50;;;;;;4878665;29;20196;-69
2023/06/25 06:54:08;;;;;;;12.30;11.30;;;29.90;69.80;;;;;;4878494;29;20575;-69
2023/06/25 06:56:35;;;;;;;12.57;11.57;;;30.20;69.70;;;;;;4879573;29;20220;-69
2023/06/25 06:59:01;;;;;;;12.13;11.32;;;30.40;67.90;;;;;;4878094;29;20279;-70
2023/06/25 07:01:26;;;;;;;12.23;11.43;;;30.50;66.00;;;;;;4882097;29;20246;-68
2023/06/25 07:03:52;;;;;;;11.02;10.23;;;30.10;65.80;;;;;;4901629;29;20172;-68
2023/06/25 07:06:19;;;;;;;14.52;13.63;;;30.00;66.70;;;;;;4903161;29;20266;-68
2023/06/25 07:08:44;;;;;;;10.60;9.80;;;30.50;66.20;;;;;;4890040;29;20196;-70
2023/06/25 07:11:10;;;;;;;12.98;12.18;;;30.90;64.40;;;;;;4878522;29;20207;-70
2023/06/25 07:13:36;;;;;;;12.48;11.63;;;30.80;61.70;;;;;;4890076;29;20733;-68
2023/06/25 07:16:02;;;;;;;11.95;10.68;;;30.60;62.90;;;;;;4890871;29;20570;-68
2023/06/25 07:18:28;;;;;;;12.57;11.45;;;30.40;61.80;;;;;;4895609;29;20196;-69
2023/06/25 07:20:53;;;;;;;254.38;26.52;;;30.70;62.30;;;;;;4889046;29;20231;-70
2023/06/25 07:23:19;;;;;;;20.10;12.68;;;30.80;60.90;;;;;;4884740;29;20228;-77
2023/06/25 07:25:45;;;;;;;16.05;12.35;;;30.70;60.40;;;;;;4878733;29;20219;-69
2023/06/25 07:28:10;;;;;;;17.10;15.68;;;30.60;59.30;;;;;;4877929;29;20189;-69
2023/06/25 07:30:38;;;;;;;18.55;16.15;;;30.20;60.50;;;;;;4871891;29;20283;-69
2023/06/25 07:33:04;;;;;;;11.05;10.23;;;30.10;60.00;;;;;;4865071;29;20221;-69
2023/06/25 07:35:30;;;;;;;13.77;12.82;;;29.60;61.50;;;;;;4863338;29;20266;-69
2023/06/25 07:37:55;;;;;;;15.02;13.98;;;29.80;60.50;;;;;;4877421;29;20192;-69
2023/06/25 07:40:21;;;;;;;19.25;17.98;;;30.50;59.40;;;;;;4877197;29;20220;-69
2023/06/25 07:42:47;;;;;;;15.02;13.93;;;30.60;58.50;;;;;;4876807;29;20223;-69
2023/06/25 07:45:13;;;;;;;23.92;22.30;;;30.60;58.50;;;;;;4877029;29;20243;-69
2023/06/25 07:47:38;;;;;;;34.05;31.95;;;30.70;57.70;;;;;;4877193;29;20200;-68
2023/06/25 07:50:05;;;;;;;21.55;20.15;;;30.40;57.60;;;;;;4887018;29;20260;-80
2023/06/25 07:52:31;;;;;;;13.90;12.85;;;29.60;57.40;;;;;;4884939;29;20195;-80
2023/06/25 07:54:57;;;;;;;14.38;13.38;;;29.10;58.60;;;;;;4880626;29;20208;-81
2023/06/25 07:57:23;;;;;;;14.40;13.45;;;29.30;59.00;;;;;;4855993;29;20187;-80
2023/06/25 07:59:48;;;;;;;17.23;15.93;;;29.90;58.80;;;;;;4881752;29;20216;-80
2023/06/25 08:02:14;;;;;;;16.17;14.98;;;29.90;56.90;;;;;;4865702;29;20271;-80
2023/06/25 08:04:40;;;;;;;14.50;13.40;;;29.40;58.00;;;;;;4884787;29;20298;-80
2023/06/25 08:07:06;;;;;;;14.45;13.25;;;29.40;58.80;;;;;;4888725;29;20192;-81
2023/06/25 08:09:32;;;;;;;15.25;14.20;;;29.40;57.70;;;;;;4877602;29;20208;-81
2023/06/25 08:11:58;;;;;;;18.85;17.45;;;29.20;57.90;;;;;;4856355;29;20188;-80
2023/06/25 08:14:23;;;;;;;16.27;15.07;;;29.50;57.90;;;;;;4885161;29;20248;-79
2023/06/25 08:16:49;;;;;;;24.75;23.17;;;30.30;57.00;;;;;;4879339;29;20240;-80
2023/06/25 08:19:15;;;;;;;28.73;27.05;;;30.70;55.00;;;;;;4855981;29;20667;-80
2023/06/25 08:21:41;;;;;;;28.23;26.33;;;30.20;55.40;;;;;;4878996;29;20208;-80
2023/06/25 08:24:07;;;;;;;30.88;29.05;;;30.20;54.80;;;;;;4877845;29;20199;-79
2023/06/25 08:26:33;;;;;;;30.63;28.80;;;30.00;54.90;;;;;;4861802;29;20208;-79
2023/06/25 08:28:59;;;;;;;22.33;20.63;;;29.70;54.00;;;;;;4862334;29;20613;-78
2023/06/25 08:31:24;;;;;;;25.77;24.08;;;29.70;56.20;;;;;;4858196;29;20291;-79
2023/06/25 08:33:50;;;;;;;34.63;32.67;;;30.40;54.70;;;;;;4879687;29;20222;-79
2023/06/25 08:36:16;;;;;;;41.28;38.90;;;30.80;53.30;;;;;;4861787;29;20215;-78
2023/06/25 08:38:42;;;;;;;28.13;26.25;;;29.80;52.90;;;;;;4875216;29;20188;-78
2023/06/25 08:41:08;;;;;;;26.65;24.83;;;29.60;54.30;;;;;;4861235;29;20212;-79
2023/06/25 08:43:34;;;;;;;33.33;31.35;;;29.90;53.20;;;;;;4878478;29;20188;-78
2023/06/25 08:46:01;;;;;;;34.30;32.10;;;30.40;50.90;;;;;;4877408;29;20208;-78
2023/06/25 08:48:31;;;;;;;28.55;26.88;;;30.20;51.40;;;;;;4876133;29;20195;-78
2023/06/25 08:51:03;;;;;;;24.42;23.02;;;30.60;49.30;;;;;;4863229;29;20691;-78
2023/06/25 08:53:30;;;;;;;33.33;31.35;;;30.90;49.60;;;;;;4861710;29;20211;-81
2023/06/25 08:55:56;;;;;;;39.00;36.75;;;30.30;49.70;;;;;;4882807;29;20215;-81
2023/06/25 08:58:24;;;;;;;33.22;31.25;;;29.80;50.40;;;;;;4884588;29;20196;-81
2023/06/25 09:00:50;;;;;;;31.35;29.60;;;30.10;48.60;;;;;;4882301;29;20224;-80
2023/06/25 09:03:16;;;;;;;34.42;32.42;;;30.00;48.80;;;;;;4887802;29;20254;-81
2023/06/25 09:05:55;;;;;;;35.03;33.03;;;30.00;50.20;;;;;;4877391;29;20228;-81
2023/06/25 09:08:23;;;;;;;30.38;28.63;;;29.80;50.30;;;;;;4878397;29;20191;-81
2023/06/25 09:10:57;;;;;;;32.35;30.52;;;29.70;49.80;;;;;;4887864;29;20196;-80
2023/06/25 09:13:25;;;;;;;30.20;28.23;;;30.20;48.20;;;;;;4877151;29;20676;-80
2023/06/25 09:15:52;;;;;;;23.73;22.23;;;30.80;47.50;;;;;;4891144;23;20638;-77
2023/06/25 09:18:21;;;;;;;19.33;18.13;;;31.10;47.20;;;;;;4860799;29;20193;-78
2023/06/25 09:20:48;;;;;;;11.88;10.98;;;31.70;46.70;;;;;;4876762;29;20215;-76
2023/06/25 09:23:21;;;;;;;13.77;12.77;;;32.00;45.60;;;;;;4861053;29;20246;-81
2023/06/25 09:25:49;;;;;;;13.18;11.93;;;32.00;46.70;;;;;;4861760;29;20217;-80
2023/06/25 09:28:15;;;;;;;9.95;9.15;;;31.60;45.10;;;;;;4862206;29;20189;-80
2023/06/25 09:30:41;;;;;;;17.88;16.80;;;31.90;45.60;;;;;;4861655;29;20196;-78
2023/06/25 09:33:08;;;;;;;16.67;15.68;;;32.30;43.20;;;;;;4860768;29;20186;-79
2023/06/25 09:35:34;;;;;;;16.63;15.60;;;32.50;42.50;;;;;;4869990;29;20227;-79
2023/06/25 09:38:01;;;;;;;19.60;18.30;;;33.00;43.50;;;;;;4866681;29;20193;-79
2023/06/25 09:40:27;;;;;;;21.50;20.23;;;32.60;43.90;;;;;;4864797;29;20220;-79
2023/06/25 09:42:54;;;;;;;20.80;19.50;;;32.80;43.90;;;;;;4867871;29;20229;-79
2023/06/25 09:45:21;;;;;;;19.50;18.30;;;32.50;44.40;;;;;;4869004;29;20320;-79
2023/06/25 09:47:49;;;;;;;15.27;14.18;;;32.70;43.60;;;;;;4861469;29;20189;-78
2023/06/25 09:50:19;;;;;;;19.23;17.98;;;32.40;43.00;;;;;;4864139;29;20222;-78
2023/06/25 09:52:52;;;;;;;16.90;15.60;;;31.50;43.90;;;;;;4869493;29;20196;-77
2023/06/25 09:55:21;;;;;;;23.85;22.33;;;31.30;45.40;;;;;;4873824;29;20204;-77
2023/06/25 09:57:48;;;;;;;22.02;20.50;;;31.90;45.50;;;;;;4871506;29;20245;-75
2023/06/25 10:00:16;;;;;;;20.05;18.75;;;32.50;43.80;;;;;;4867080;29;20225;-77
2023/06/25 10:02:44;;;;;;;15.82;14.82;;;32.70;43.80;;;;;;4866606;29;20162;-79
2023/06/25 10:05:11;;;;;;;15.82;14.82;;;32.60;42.70;;;;;;4855314;29;20200;-81
2023/06/25 10:07:37;;;;;;;14.82;13.82;;;32.70;43.00;;;;;;4870857;29;20185;-77
2023/06/25 10:10:03;;;;;;;19.15;17.70;;;33.10;42.40;;;;;;4861040;29;20721;-77
2023/06/25 10:12:38;;;;;;;14.05;13.05;;;33.40;44.60;;;;;;4861572;29;20244;-78
2023/06/25 10:15:04;;;;;;;15.02;13.82;;;33.40;43.90;;;;;;4865575;29;20718;-73
2023/06/25 10:17:31;;;;;;;15.88;14.75;;;33.10;43.60;;;;;;4859230;29;20189;-74
2023/06/25 10:19:58;;;;;;;15.88;14.82;;;;;;;;;;4862779;29;20193;-76
2023/06/25 10:22:25;;;;;;;15.88;14.77;;;32.00;61.90;;;;;;4871713;29;20220;-78
2023/06/25 10:24:52;;;;;;;16.02;15.07;;;32.00;55.20;;;;;;4870673;29;20193;-79
2023/06/25 10:27:25;;;;;;;17.48;16.48;;;32.60;43.50;;;;;;4853560;29;20223;-77
2023/06/25 10:29:56;;;;;;;12.10;11.30;;;32.60;42.80;;;;;;4872716;29;20201;-79
2023/06/25 10:32:31;;;;;;;11.48;10.68;;;32.80;44.10;;;;;;4870796;29;20245;-81
2023/06/25 10:35:02;;;;;;;16.88;15.82;;;33.10;42.30;;;;;;4856934;29;20613;-80
2023/06/25 10:37:33;;;;;;;20.55;19.25;;;31.90;43.60;;;;;;4857140;29;20283;-78
2023/06/25 10:40:09;;;;;;;21.02;19.52;;;31.90;42.20;;;;;;4857343;29;20253;-80
2023/06/25 10:42:38;;;;;;;23.50;22.05;;;31.90;42.60;;;;;;4869825;29;20211;-79
2023/06/25 10:45:04;;;;;;;14.02;13.10;;;32.30;43.80;;;;;;4856989;29;20627;-80
2023/06/25 10:47:30;;;;;;;9.07;8.38;;;33.30;43.00;;;;;;4843144;29;20650;-80
2023/06/25 10:49:56;;;;;;;7.82;7.13;;;33.70;40.40;;;;;;4855997;29;20224;-81
2023/06/25 10:52:22;;;;;;;8.45;7.72;;;33.70;39.50;;;;;;4860686;29;20250;-80
2023/06/25 10:54:48;;;;;;;9.05;8.45;;;33.50;39.50;;;;;;4858945;29;20194;-81
2023/06/25 10:57:15;;;;;;;11.48;10.68;;;33.40;49.00;;;;;;4868325;29;20232;-81
2023/06/25 10:59:45;;;;;;;12.32;11.50;;;32.90;41.60;;;;;;4881160;29;20374;-79
2023/06/25 11:02:21;;;;;;;10.18;9.48;;;32.60;42.00;;;;;;4861766;29;20217;-81
2023/06/25 11:04:58;;;;;;;9.18;8.43;;;33.00;41.30;;;;;;4865347;29;20185;-82
2023/06/25 11:07:25;;;;;;;8.07;7.55;;;32.70;40.30;;;;;;4863991;29;20215;-83
2023/06/25 11:10:01;;;;;;;7.35;6.75;;;33.30;40.10;;;;;;4850243;29;20185;-81
2023/06/25 11:12:27;;;;;;;7.32;6.63;;;33.10;38.30;;;;;;4845098;29;20216;-81
2023/06/25 11:14:53;;;;;;;6.60;6.00;;;33.20;38.70;;;;;;4866404;29;20236;-81
2023/06/25 11:17:19;;;;;;;6.75;6.15;;;33.80;38.60;;;;;;4845868;29;20254;-81
2023/06/25 11:19:52;;;;;;;5.70;5.30;;;33.80;38.60;;;;;;4867662;29;20661;-81
2023/06/25 11:22:19;;;;;;;9.20;7.40;;;33.90;39.80;;;;;;4871326;29;20213;-80
2023/06/25 11:24:46;;;;;;;10.13;6.90;;;33.60;42.60;;;;;;4882086;29;20278;-80
2023/06/25 11:27:14;;;;;;;12.18;11.15;;;34.00;44.10;;;;;;4864614;29;20269;-80
2023/06/25 11:29:41;;;;;;;56.50;37.30;;;35.10;50.60;;;;;;4870749;29;20284;-79
2023/06/25 11:32:09;;;;;;;37.55;35.60;;;;;;;;;;4863185;29;20204;-81
2023/06/25 11:34:42;;;;;;;52.97;50.22;;;35.40;37.40;;;;;;4879123;29;20189;-79
2023/06/25 11:37:13;;;;;;;41.03;38.83;;;35.60;37.90;;;;;;4879369;29;20220;-81
2023/06/25 11:39:47;;;;;;;27.67;25.98;;;36.30;37.30;;;;;;4857109;29;20196;-83
2023/06/25 11:42:24;;;;;;;32.33;30.60;;;36.10;37.00;;;;;;4855759;29;20229;-81
2023/06/25 11:45:05;;;;;;;25.75;24.25;;;36.00;37.30;;;;;;4868897;29;20750;-81
2023/06/25 11:47:31;;;;;;;23.73;22.17;;;36.70;36.80;;;;;;4866003;29;20225;-82
2023/06/25 11:49:59;;;;;;;22.25;21.05;;;37.20;36.20;;;;;;4876524;29;20200;-83
2023/06/25 11:52:26;;;;;;;17.67;16.55;;;37.70;35.70;;;;;;4871432;29;20196;-83
2023/06/25 11:54:52;;;;;;;27.73;26.05;;;37.50;35.90;;;;;;4850890;29;20182;-81
2023/06/25 11:57:20;;;;;;;18.73;17.63;;;36.30;36.20;;;;;;4866894;29;20379;-78
2023/06/25 11:59:46;;;;;;;22.10;20.85;;;35.90;37.10;;;;;;4867309;29;20181;-80
2023/06/25 12:02:12;;;;;;;20.55;19.40;;;36.30;37.60;;;;;;4873525;29;20213;-80
2023/06/25 12:04:38;;;;;;;24.65;23.33;;;36.20;36.90;;;;;;4850131;29;20189;-79
2023/06/25 12:07:04;;;;;;;20.98;19.77;;;35.90;36.20;;;;;;4860438;29;20205;-78
2023/06/25 12:09:30;;;;;;;23.90;22.58;;;35.50;37.50;;;;;;4850282;29;20189;-81
2023/06/25 12:11:56;;;;;;;17.98;16.95;;;35.90;37.10;;;;;;4853122;29;20204;-80
2023/06/25 12:14:22;;;;;;;22.98;21.58;;;35.90;36.70;;;;;;4863582;29;20192;-80
2023/06/25 12:16:48;;;;;;;28.98;27.38;;;36.80;36.30;;;;;;4851791;29;20229;-79
2023/06/25 12:19:15;;;;;;;16.27;15.30;;;37.40;35.90;;;;;;4851419;29;20300;-78
2023/06/25 12:21:41;;;;;;;11.45;10.63;;;38.10;35.70;;;;;;4869083;29;20231;-79
2023/06/25 12:24:06;;;;;;;11.73;10.82;;;37.80;35.90;;;;;;4859473;29;20186;-79
2023/06/25 12:26:32;;;;;;;9.75;9.15;;;38.20;36.30;;;;;;4848001;29;20368;-80
2023/06/25 12:28:58;;;;;;;11.80;11.10;;;38.30;35.40;;;;;;4855740;29;20185;-78
2023/06/25 12:31:24;;;;;;;12.55;11.85;;;37.10;36.40;;;;;;4851564;29;20204;-78
2023/06/25 12:33:50;;;;;;;8.85;8.25;;;36.90;38.10;;;;;;4864005;29;20268;-78
2023/06/25 12:36:15;;;;;;;9.95;9.30;;;37.70;36.00;;;;;;4851415;29;20229;-78
2023/06/25 12:38:41;;;;;;;10.38;9.68;;;38.10;34.60;;;;;;4859108;29;20193;-80
2023/06/25 12:41:07;;;;;;;9.15;8.45;;;37.60;35.40;;;;;;4861956;29;20206;-79
2023/06/25 12:43:33;;;;;;;11.52;10.73;;;38.20;34.60;;;;;;4868076;29;20203;-80
2023/06/25 12:45:58;;;;;;;11.10;10.40;;;38.50;34.20;;;;;;4862138;29;20353;-80
2023/06/25 12:48:24;;;;;;;9.25;8.55;;;38.00;34.80;;;;;;4861691;29;20256;-79
2023/06/25 12:50:50;;;;;;;10.98;10.02;;;;;;;;;;4857004;29;20197;-80
2023/06/25 12:53:16;;;;;;;10.40;9.68;;;38.30;33.70;;;;;;4851635;29;20192;-79
2023/06/25 12:55:43;;;;;;;11.63;10.65;;;38.70;34.70;;;;;;4861678;29;20213;-78
2023/06/25 12:58:08;;;;;;;15.20;14.20;;;38.80;35.00;;;;;;4862817;29;20192;-79
2023/06/25 13:00:34;;;;;;;10.27;9.48;;;38.10;35.60;;;;;;4847043;29;20264;-79
2023/06/25 13:03:02;;;;;;;9.10;8.32;;;37.70;35.20;;;;;;4849238;29;20205;-80
2023/06/25 13:05:28;;;;;;;13.70;12.77;;;38.00;35.30;;;;;;4849124;29;20220;-80
2023/06/25 13:07:54;;;;;;;13.52;12.65;;;38.70;34.40;;;;;;4860661;29;20197;-82
2023/06/25 13:10:20;;;;;;;9.73;9.00;;;37.90;35.00;;;;;;4839781;29;20185;-80
2023/06/25 13:12:46;;;;;;;16.00;15.07;;;38.00;34.40;;;;;;4858967;29;20621;-79
2023/06/25 13:15:12;;;;;;;11.05;10.25;;;38.20;34.30;;;;;;4854561;29;20193;-79
2023/06/25 13:17:41;;;;;;;10.90;10.10;;;38.00;33.70;;;;;;4850332;29;20217;-79
2023/06/25 13:20:07;;;;;;;11.02;10.15;;;38.40;33.90;;;;;;4870044;29;20204;-78
2023/06/25 13:22:33;;;;;;;8.63;8.02;;;38.90;34.00;;;;;;4862207;29;20220;-84
2023/06/25 13:24:59;;;;;;;6.22;5.72;;;39.30;33.70;;;;;;4850625;29;20193;-84
2023/06/25 13:27:24;;;;;;;6.38;5.90;;;40.50;32.10;;;;;;4852195;29;20562;-83
2023/06/25 13:29:50;;;;;;;5.75;5.28;;;39.50;32.30;;;;;;4844105;29;20241;-84
2023/06/25 13:32:16;;;;;;;6.15;5.65;;;39.30;32.70;;;;;;4877991;29;20293;-82
2023/06/25 13:34:42;;;;;;;6.00;5.60;;;39.40;32.10;;;;;;4873135;29;20288;-82
2023/06/25 13:37:07;;;;;;;6.82;6.30;;;38.50;32.50;;;;;;4853226;29;20224;-83
2023/06/25 13:39:33;;;;;;;7.03;6.50;;;37.50;33.50;;;;;;4855795;29;20193;-83
2023/06/25 13:41:59;;;;;;;7.45;6.82;;;37.40;33.50;;;;;;4853155;29;20210;-83
2023/06/25 13:44:24;;;;;;;6.00;5.50;;;37.10;33.70;;;;;;4854134;29;20211;-83
2023/06/25 13:46:50;;;;;;;6.70;5.97;;;37.60;32.70;;;;;;4854183;29;20215;-84
2023/06/25 13:49:16;;;;;;;7.38;6.72;;;38.80;32.20;;;;;;4869757;29;20208;-83
2023/06/25 13:51:42;;;;;;;5.22;4.72;;;39.20;31.30;;;;;;4884284;29;20189;-83
2023/06/25 13:54:07;;;;;;;5.97;5.50;;;39.20;30.70;;;;;;4867882;29;20209;-82
2023/06/25 13:56:33;;;;;;;6.35;5.90;;;38.50;31.20;;;;;;4866832;29;20213;-83
2023/06/25 13:58:59;;;;;;;5.93;5.43;;;39.10;31.30;;;;;;4868827;29;20236;-84
2023/06/25 14:01:24;;;;;;;5.68;5.28;;;39.20;31.80;;;;;;4853811;29;20248;-84
2023/06/25 14:03:52;;;;;;;5.70;5.30;;;39.80;32.10;;;;;;4853670;29;20221;-84
2023/06/25 14:06:18;;;;;;;6.07;5.57;;;40.30;31.30;;;;;;4868861;29;20733;-83
2023/06/25 14:08:44;;;;;;;6.13;5.63;;;40.50;30.50;;;;;;4852208;29;20421;-84
2023/06/25 14:11:10;;;;;;;6.22;5.72;;;39.50;31.40;;;;;;4851754;29;20896;-83
2023/06/25 14:13:36;;;;;;;6.13;5.72;;;39.90;30.90;;;;;;4856003;29;20207;-83
2023/06/25 14:16:02;;;;;;;6.90;6.30;;;40.10;30.80;;;;;;4860042;29;20336;-83
2023/06/25 14:18:28;;;;;;;7.57;6.88;;;40.40;30.60;;;;;;4851231;29;20280;-83
2023/06/25 14:20:53;;;;;;;9.55;8.85;;;41.20;30.30;;;;;;4874134;29;20245;-82
2023/06/25 14:23:19;;;;;;;6.43;5.93;;;41.40;30.30;;;;;;4853257;29;20226;-82
2023/06/25 14:25:45;;;;;;;6.15;5.68;;;41.90;29.80;;;;;;4869948;29;20240;-82
2023/06/25 14:28:11;;;;;;;6.22;5.72;;;42.20;29.10;;;;;;4851667;29;20200;-82
2023/06/25 14:30:37;;;;;;;6.60;6.20;;;41.50;29.50;;;;;;4869348;29;20215;-82
2023/06/25 14:33:02;;;;;;;8.40;7.32;;;41.00;29.70;;;;;;4874862;29;20247;-81
2023/06/25 14:35:29;;;;;;;8.23;7.53;;;40.30;30.00;;;;;;4883728;29;20238;-82
2023/06/25 14:37:55;;;;;;;9.57;8.93;;;39.70;30.10;;;;;;4870819;29;20189;-82
2023/06/25 14:40:21;;;;;;;7.85;7.30;;;39.60;30.00;;;;;;4846858;29;20189;-82
2023/06/25 14:42:48;;;;;;;8.60;8.00;;;39.50;30.00;;;;;;4869096;29;20199;-82
2023/06/25 14:45:14;;;;;;;7.63;7.13;;;40.00;31.00;;;;;;4853249;29;20802;-82
2023/06/25 14:47:40;;;;;;;7.95;7.45;;;40.50;29.90;;;;;;4845277;29;20214;-82
2023/06/25 14:50:06;;;;;;;7.40;6.18;;;40.60;29.50;;;;;;4858754;29;20188;-82
2023/06/25 14:52:32;;;;;;;7.30;6.70;;;40.70;29.00;;;;;;4852503;29;20219;-82
2023/06/25 14:54:58;;;;;;;6.38;5.78;;;40.80;29.20;;;;;;4872903;29;20275;-83
2023/06/25 14:57:23;;;;;;;6.97;6.38;;;40.70;28.90;;;;;;4866101;29;20230;-83
2023/06/25 14:59:49;;;;;;;6.63;6.13;;;40.40;29.10;;;;;;4849006;29;20189;-83
2023/06/25 15:02:15;;;;;;;6.03;5.63;;;40.40;28.80;;;;;;4852573;29;20261;-83
2023/06/25 15:04:47;;;;;;;6.82;6.32;;;40.70;29.00;;;;;;4867224;29;20193;-83
2023/06/25 15:07:14;;;;;;;6.75;6.28;;;40.60;28.80;;;;;;4851367;29;20571;-83
2023/06/25 15:09:40;;;;;;;9.75;9.13;;;40.10;29.30;;;;;;4867526;29;20280;-83
2023/06/25 15:12:06;;;;;;;7.30;6.70;;;39.90;29.60;;;;;;4852137;29;20913;-83
2023/06/25 15:14:31;;;;;;;9.18;8.40;;;40.20;29.40;;;;;;4863490;29;20177;-84
2023/06/25 15:16:58;;;;;;;7.25;6.75;;;40.20;29.10;;;;;;4866462;29;20228;-83
2023/06/25 15:19:24;;;;;;;7.03;6.53;;;40.40;29.00;;;;;;4868150;29;20210;-83
2023/06/25 15:21:50;;;;;;;6.88;6.38;;;40.60;29.50;;;;;;4866968;29;20189;-83
2023/06/25 15:24:15;;;;;;;6.80;6.25;;;40.40;28.90;;;;;;4853103;29;20193;-83
2023/06/25 15:26:41;;;;;;;6.25;5.85;;;40.40;29.10;;;;;;4851317;29;20702;-83
2023/06/25 15:29:07;;;;;;;6.82;6.22;;;40.30;29.50;;;;;;4845621;29;20192;-83